Time;durP1;ratioP1;P1;durP2;ratioP2;P2;SDS_P1;SDS_P2;PMS_P1;PMS_P2;Temp;Humidity;BMP_temperature;BMP_pressure;BME280_temperature;BME280_humidity;BME280_pressure;Samples;Min_cycle;Max_cycle;Signal;HPM_P1;HPM_P2
2021/07/16 00:00:00;;;;;;;2.93;1.53;;;12.70;99.90;;;13.19;100.00;95085.00;2378347;55;34566;-50
2021/07/16 00:05:47;;;;;;;3.30;1.30;;;12.80;99.90;;;13.41;100.00;95091.00;2478416;54;33647;-50
2021/07/16 00:08:33;;;;;;;2.33;1.25;;;12.90;99.90;;;13.32;100.00;95108.00;2247954;54;26756;-50
2021/07/16 00:11:20;;;;;;;2.28;1.40;;;12.80;99.90;;;13.21;100.00;95117.00;2484232;54;26542;-50
2021/07/16 00:14:07;;;;;;;2.73;1.20;;;12.80;99.90;;;13.22;100.00;95123.00;2246658;54;26917;-49
2021/07/16 00:16:54;;;;;;;3.10;1.30;;;12.90;99.90;;;13.27;100.00;95124.00;2493349;54;26732;-51
2021/07/16 00:19:40;;;;;;;1.27;1.17;;;12.90;99.90;;;13.25;100.00;95123.00;2243997;54;26907;-50
2021/07/16 00:22:27;;;;;;;2.07;1.00;;;12.80;99.90;;;13.25;100.00;95128.00;2236544;54;26742;-50
2021/07/16 00:25:15;;;;;;;1.73;1.30;;;12.90;99.90;;;13.32;100.00;95133.00;2236766;55;26096;-50
2021/07/16 00:28:01;;;;;;;2.37;1.12;;;13.10;99.90;;;13.58;100.00;95124.00;2461785;53;27199;-51
2021/07/16 00:30:49;;;;;;;1.63;1.23;;;13.10;99.90;;;13.54;100.00;95130.00;2242568;55;26593;-49
2021/07/16 00:33:36;;;;;;;4.20;1.15;;;13.10;99.90;;;13.61;100.00;95128.00;2488098;54;26853;-50
2021/07/16 00:36:22;;;;;;;1.67;1.20;;;13.10;99.90;;;13.46;100.00;95126.00;2265589;55;26162;-50
2021/07/16 00:42:07;;;;;;;2.33;1.25;;;13.10;99.90;;;13.54;100.00;95107.00;2441954;53;33637;-50
2021/07/16 00:44:54;;;;;;;2.90;1.17;;;13.10;99.90;;;13.43;100.00;95129.00;2393316;55;27534;-50
2021/07/16 00:47:42;;;;;;;4.50;1.23;;;13.00;99.90;;;13.42;100.00;95130.00;2217398;55;26754;-50
2021/07/16 00:50:32;;;;;;;1.50;1.30;;;13.00;99.90;;;13.39;100.00;95131.00;2214808;55;26832;-51
2021/07/16 00:53:20;;;;;;;2.35;1.25;;;13.00;99.90;;;13.32;100.00;95129.00;2217574;54;26704;-50
2021/07/16 00:56:09;;;;;;;2.85;1.12;;;13.00;99.90;;;13.42;100.00;95127.00;2439468;54;27262;-50
2021/07/16 00:58:55;;;;;;;2.77;1.23;;;12.90;99.90;;;13.27;100.00;95126.00;2467022;54;26584;-50
2021/07/16 01:01:43;;;;;;;1.92;1.00;;;12.90;99.90;;;13.26;100.00;95117.00;2242435;54;27555;-49
2021/07/16 01:04:29;;;;;;;3.30;1.20;;;12.80;99.90;;;13.27;100.00;95130.00;2245105;54;27206;-48
2021/07/16 01:07:16;;;;;;;6.87;1.10;;;12.90;99.90;;;13.33;100.00;95126.00;2472743;54;27187;-48
2021/07/16 01:10:02;;;;;;;2.27;1.20;;;12.80;99.90;;;13.17;100.00;95123.00;2244022;54;26806;-48
2021/07/16 01:12:51;;;;;;;2.87;1.00;;;12.80;99.90;;;13.13;100.00;95114.00;2242900;54;27284;-49
2021/07/16 01:15:38;;;;;;;2.37;1.27;;;12.80;99.90;;;13.19;100.00;95121.00;2242298;54;28262;-49
2021/07/16 01:18:25;;;;;;;1.97;1.30;;;12.80;99.90;;;13.22;100.00;95129.00;2246111;54;27301;-54
2021/07/16 01:24:09;;;;;;;1.40;1.10;;;12.80;99.90;;;13.19;100.00;95093.00;2355202;56;34543;-50
2021/07/16 01:26:55;;;;;;;6.77;1.40;;;12.70;99.90;;;13.11;100.00;95117.00;2165055;58;26772;-50
2021/07/16 01:29:42;;;;;;;4.05;1.23;;;12.70;99.90;;;13.13;100.00;95114.00;2370484;57;26190;-50
2021/07/16 01:32:29;;;;;;;2.53;1.10;;;12.70;99.90;;;13.04;100.00;95115.00;2135223;57;26640;-50
2021/07/16 01:35:17;;;;;;;4.93;1.35;;;12.70;99.90;;;13.07;100.00;95109.00;2141082;56;26765;-50
2021/07/16 01:38:04;;;;;;;1.50;1.20;;;12.70;99.90;;;13.06;100.00;95113.00;2159473;57;26594;-50
2021/07/16 01:40:50;;;;;;;2.17;1.10;;;12.60;99.90;;;12.90;100.00;95110.00;2162001;57;27192;-51
2021/07/16 01:43:37;;;;;;;3.80;1.20;;;12.60;99.90;;;12.99;100.00;95107.00;2152800;57;26142;-50
2021/07/16 01:46:23;;;;;;;1.30;1.20;;;12.50;99.90;;;12.85;100.00;95101.00;2148836;57;27200;-50
2021/07/16 01:52:07;;;;;;;1.30;1.20;;;12.40;99.90;;;13.05;100.00;95077.00;2428346;55;33592;-50
2021/07/16 01:54:53;;;;;;;1.35;1.10;;;12.40;99.90;;;12.85;100.00;95093.00;2225379;55;26591;-49
2021/07/16 01:57:43;;;;;;;2.50;1.30;;;12.50;99.90;;;12.83;100.00;95098.00;2231714;56;26843;-50
2021/07/16 02:00:32;;;;;;;4.20;1.30;;;12.40;99.90;;;12.70;100.00;95088.00;2232606;56;26943;-50
2021/07/16 02:03:19;;;;;;;6.30;1.30;;;12.30;99.90;;;12.54;100.00;95080.00;2458046;55;26624;-50
2021/07/16 02:06:06;;;;;;;1.47;1.30;;;12.20;99.90;;;12.44;100.00;95082.00;2196667;56;26617;-51
2021/07/16 02:08:52;;;;;;;3.60;1.50;;;12.10;99.90;;;12.34;100.00;95080.00;2187263;56;26582;-50
2021/07/16 02:11:38;;;;;;;1.27;1.17;;;12.00;99.90;;;12.32;100.00;95089.00;2402063;55;26960;-50
2021/07/16 02:14:25;;;;;;;1.25;1.15;;;12.00;99.90;;;12.37;100.00;95094.00;2184293;56;26111;-50
2021/07/16 02:17:11;;;;;;;98.05;15.13;;;12.00;99.90;;;12.45;100.00;95094.00;2412415;55;26791;-50
2021/07/16 02:19:58;;;;;;;4.17;1.40;;;12.00;99.90;;;12.34;100.00;95087.00;2211781;56;26848;-50
2021/07/16 02:22:44;;;;;;;239.57;15.73;;;11.90;99.90;;;12.23;100.00;95084.00;2433066;55;26749;-50
2021/07/16 02:25:31;;;;;;;2.67;1.40;;;11.90;99.90;;;12.23;100.00;95090.00;2211120;56;26710;-51
2021/07/16 02:28:20;;;;;;;1.60;1.40;;;11.90;99.90;;;12.19;100.00;95091.00;2433773;55;27048;-50
2021/07/16 02:31:09;;;;;;;1.40;0.80;;;11.90;99.90;;;12.18;100.00;95100.00;2186615;56;26614;-50
2021/07/16 02:33:56;;;;;;;4.50;1.43;;;11.80;99.90;;;12.21;100.00;95097.00;2401521;55;26795;-50
2021/07/16 02:36:43;;;;;;;4.93;1.50;;;11.90;99.90;;;12.23;100.00;95095.00;2212582;56;26610;-50
2021/07/16 02:39:30;;;;;;;5.43;1.30;;;11.90;99.90;;;12.22;100.00;95097.00;2210240;56;27291;-50
2021/07/16 02:42:16;;;;;;;4.83;1.20;;;11.90;99.90;;;12.31;100.00;95092.00;2433253;55;26726;-50
2021/07/16 02:45:09;;;;;;;7.20;1.60;;;11.90;99.90;;;12.27;100.00;95094.00;2212539;56;26644;-50
2021/07/16 02:47:57;;;;;;;1.87;1.57;;;12.00;99.90;;;12.33;100.00;95096.00;2190998;56;26685;-50
2021/07/16 02:53:42;;;;;;;3.17;1.57;;;12.00;99.90;;;12.50;100.00;95079.00;2436234;54;33753;-50
2021/07/16 02:56:29;;;;;;;3.33;1.50;;;12.10;99.90;;;12.43;100.00;95096.00;2186724;56;27180;-50
2021/07/16 02:59:15;;;;;;;1.60;1.40;;;12.10;99.90;;;12.51;100.00;95104.00;2159659;58;26727;-50
2021/07/16 03:02:05;;;;;;;1.57;1.00;;;12.20;99.90;;;12.65;100.00;95103.00;2162468;56;27186;-51
2021/07/16 03:04:51;;;;;;;2.40;1.23;;;12.30;99.90;;;12.81;100.00;95099.00;2417811;55;26585;-51
2021/07/16 03:07:38;;;;;;;4.40;1.40;;;12.30;99.90;;;12.71;100.00;95099.00;2213088;55;26771;-49
2021/07/16 03:10:27;;;;;;;3.07;1.53;;;12.30;99.90;;;12.68;100.00;95103.00;2440599;55;26642;-50
2021/07/16 03:13:16;;;;;;;2.27;1.83;;;12.30;99.90;;;12.77;100.00;95109.00;2214799;56;26898;-50
2021/07/16 03:16:03;;;;;;;2.20;1.60;;;12.30;99.90;;;12.71;100.00;95105.00;2213991;55;26747;-50
2021/07/16 03:18:49;;;;;;;2.47;1.90;;;12.30;99.90;;;12.67;100.00;95103.00;2215967;56;26786;-51
2021/07/16 03:21:35;;;;;;;5.17;2.10;;;12.30;99.90;;;12.65;100.00;95103.00;2216575;56;26546;-49
2021/07/16 03:24:22;;;;;;;5.43;2.50;;;12.30;99.90;;;12.67;100.00;95101.00;2212382;55;27687;-51
2021/07/16 03:27:09;;;;;;;3.37;2.53;;;12.30;99.90;;;12.77;100.00;95109.00;2201709;56;26894;-52
2021/07/16 03:29:55;;;;;;;2.37;2.10;;;12.40;99.90;;;12.90;100.00;95102.00;2199687;56;27165;-51
2021/07/16 03:32:42;;;;;;;4.87;2.58;;;12.40;99.90;;;12.79;100.00;95102.00;2207785;56;26615;-50
2021/07/16 03:35:30;;;;;;;2.40;2.20;;;12.40;99.90;;;12.74;100.00;95097.00;2448224;55;26895;-50
2021/07/16 03:38:17;;;;;;;4.23;2.37;;;12.30;99.90;;;12.67;100.00;95100.00;2216375;56;26662;-49
2021/07/16 03:44:01;;;;;;;4.80;2.07;;;12.30;99.90;;;12.77;100.00;95083.00;2448497;53;33703;-50
2021/07/16 03:49:47;;;;;;;2.80;2.40;;;12.30;99.90;;;12.78;100.00;95103.00;2440899;53;34623;-50
2021/07/16 03:55:31;;;;;;;5.47;1.87;;;12.30;99.90;;;12.83;100.00;95108.00;2379572;55;33390;-50
2021/07/16 04:01:14;;;;;;;2.10;1.90;;;12.30;99.90;;;12.89;100.00;95113.00;2350613;56;34893;-50
2021/07/16 04:04:00;;;;;;;4.23;1.50;;;12.40;99.90;;;12.75;100.00;95132.00;2344371;56;27335;-51
2021/07/16 04:06:52;;;;;;;1.87;1.62;;;12.50;99.90;;;12.84;100.00;95134.00;2144690;57;26700;-50
2021/07/16 04:09:38;;;;;;;5.63;1.90;;;12.50;99.90;;;12.88;100.00;95146.00;2378157;56;26145;-51
2021/07/16 04:12:24;;;;;;;4.63;1.73;;;12.50;99.90;;;12.92;100.00;95138.00;2185181;56;27378;-50
2021/07/16 04:18:10;;;;;;;3.57;1.90;;;12.50;99.90;;;13.11;100.00;95121.00;2479346;53;34011;-50
2021/07/16 04:26:51;;;;;;;1.73;1.63;;;12.50;99.90;;;13.07;100.00;95123.00;2414368;55;33758;-51
2021/07/16 04:29:39;;;;;;;1.90;1.77;;;12.50;99.90;;;12.90;100.00;95147.00;2214852;55;27274;-50
2021/07/16 04:32:26;;;;;;;2.03;1.80;;;12.60;99.90;;;13.01;100.00;95144.00;2441643;55;26756;-50
2021/07/16 04:35:14;;;;;;;2.28;1.73;;;12.60;99.90;;;13.01;100.00;95143.00;2209802;55;26702;-52
2021/07/16 04:38:01;;;;;;;4.33;1.70;;;12.60;99.90;;;13.07;100.00;95141.00;2432899;55;26714;-51
2021/07/16 04:40:47;;;;;;;2.33;1.90;;;12.70;99.90;;;13.07;100.00;95139.00;2240089;55;27151;-51
2021/07/16 04:43:34;;;;;;;2.10;1.80;;;12.70;99.90;;;13.17;100.00;95160.00;2236369;55;26822;-50
2021/07/16 04:46:20;;;;;;;4.47;1.87;;;12.80;99.90;;;13.20;100.00;95162.00;2226197;54;26810;-51
2021/07/16 04:49:07;;;;;;;1.90;1.70;;;12.90;99.90;;;13.37;100.00;95161.00;2216468;56;26736;-50
2021/07/16 04:51:54;;;;;;;2.83;1.50;;;13.00;99.90;;;13.52;100.00;95159.00;2210682;55;26756;-50
2021/07/16 04:57:37;;;;;;;1.80;1.50;;;13.00;99.90;;;13.53;100.00;95140.00;2298737;57;33855;-51
2021/07/16 05:00:24;;;;;;;1.53;1.43;;;13.10;99.90;;;13.62;100.00;95157.00;2118621;59;26579;-50
2021/07/16 05:03:10;;;;;;;1.85;1.50;;;13.20;99.90;;;13.69;100.00;95147.00;2369326;57;26796;-50
2021/07/16 05:05:57;;;;;;;3.08;1.60;;;13.20;99.90;;;13.75;100.00;95152.00;2160042;59;26200;-49
2021/07/16 05:08:43;;;;;;;2.87;1.80;;;13.40;99.90;;;13.97;100.00;95143.00;2371232;57;26550;-50
2021/07/16 05:11:31;;;;;;;1.98;1.50;;;13.40;99.90;;;13.91;100.00;95146.00;2141081;58;26806;-51
2021/07/16 05:14:17;;;;;;;4.30;1.55;;;13.60;99.90;;;14.25;100.00;95146.00;2133510;57;26728;-51
2021/07/16 05:17:04;;;;;;;1.30;1.20;;;13.70;99.90;;;14.24;100.00;95146.00;2342529;57;26937;-50
2021/07/16 05:25:43;;;;;;;3.12;1.42;;;14.00;99.90;;;14.59;100.00;95127.00;2414712;55;33990;-51
2021/07/16 05:28:30;;;;;;;1.30;1.20;;;14.10;99.90;;;14.61;100.00;95145.00;2161059;56;26983;-50
2021/07/16 05:31:17;;;;;;;2.58;1.70;;;14.10;99.90;;;14.63;100.00;95140.00;2375702;55;26720;-51
2021/07/16 05:34:03;;;;;;;4.90;1.40;;;14.20;99.90;;;14.76;100.00;95137.00;2126577;56;27105;-51
2021/07/16 05:36:49;;;;;;;1.48;1.37;;;14.30;99.90;;;14.99;100.00;95136.00;2344095;56;27449;-51
2021/07/16 05:42:34;;;;;;;1.20;1.10;;;14.70;99.90;;;15.61;100.00;95119.00;2408848;55;33219;-50
2021/07/16 05:45:20;;;;;;;1.67;1.10;;;14.90;99.90;;;15.76;100.00;95133.00;2160840;56;26135;-50
2021/07/16 05:51:04;;;;;;;1.25;1.15;;;15.20;99.90;;;15.92;100.00;95119.00;2393847;55;34152;-51
2021/07/16 05:53:51;;;;;;;2.67;1.08;;;15.30;99.90;;;15.80;100.00;95126.00;2170130;57;27306;-51
2021/07/16 05:59:33;;;;;;;2.22;1.10;;;15.20;99.90;;;15.98;100.00;95110.00;2412091;55;34173;-51
2021/07/16 06:02:19;;;;;;;1.83;1.10;;;15.30;99.90;;;15.84;100.00;95127.00;2427996;55;26300;-50
2021/07/16 06:05:08;;;;;;;1.52;1.10;;;15.30;99.90;;;15.94;100.00;95125.00;2217658;56;27266;-50
2021/07/16 06:07:55;;;;;;;2.97;1.20;;;15.30;99.90;;;15.80;100.00;95132.00;2239643;55;27593;-51
2021/07/16 06:10:41;;;;;;;1.52;1.20;;;15.00;99.90;;;15.41;100.00;95140.00;2219552;55;26637;-51
2021/07/16 06:13:28;;;;;;;1.87;1.43;;;14.90;99.90;;;15.23;100.00;95148.00;2214183;56;27375;-51
2021/07/16 06:16:14;;;;;;;2.10;1.15;;;14.80;99.90;;;15.15;100.00;95146.00;2214428;56;26606;-50
2021/07/16 06:19:00;;;;;;;1.33;1.10;;;14.70;99.90;;;15.08;100.00;95148.00;2216934;55;27006;-51
2021/07/16 06:21:47;;;;;;;2.03;1.10;;;14.80;99.90;;;15.23;100.00;95155.00;2235458;55;26697;-50
2021/07/16 06:24:34;;;;;;;1.87;1.00;;;14.80;99.90;;;15.37;100.00;95159.00;2242056;55;26864;-50
2021/07/16 06:27:20;;;;;;;2.72;1.20;;;14.70;99.90;;;15.26;100.00;95158.00;2240956;55;26896;-51
2021/07/16 06:33:06;;;;;;;2.10;1.10;;;14.70;99.90;;;15.08;100.00;95153.00;2320578;56;33355;-50
2021/07/16 06:35:52;;;;;;;1.90;1.20;;;14.60;99.90;;;14.98;100.00;95160.00;2077629;58;27325;-50
2021/07/16 06:38:39;;;;;;;3.47;1.10;;;14.50;99.90;;;14.90;100.00;95180.00;2261443;58;26796;-51
2021/07/16 06:44:23;;;;;;;1.92;1.10;;;14.50;99.90;;;15.01;100.00;95171.00;2401142;55;34109;-51
2021/07/16 06:47:10;;;;;;;2.45;1.20;;;14.60;99.90;;;15.07;100.00;95183.00;2388795;56;26625;-51
2021/07/16 06:52:54;;;;;;;3.75;1.30;;;15.10;99.90;;;15.79;100.00;95169.00;2420336;55;34240;-51
2021/07/16 06:55:41;;;;;;;1.58;1.05;;;15.20;99.90;;;15.74;100.00;95185.00;2231761;56;27055;-50
2021/07/16 06:58:27;;;;;;;2.75;1.20;;;15.20;99.90;;;15.79;100.00;95188.00;2463831;55;26118;-51
2021/07/16 07:01:13;;;;;;;2.62;1.20;;;15.40;99.90;;;16.04;100.00;95194.00;2212486;55;26276;-51
2021/07/16 07:04:00;;;;;;;1.33;1.12;;;15.70;99.90;;;16.38;100.00;95201.00;2216061;55;27201;-50
2021/07/16 07:06:46;;;;;;;1.48;1.10;;;15.70;99.90;;;16.33;100.00;95203.00;2416285;55;27255;-51
2021/07/16 07:09:33;;;;;;;0.98;0.93;;;16.00;99.90;;;16.66;100.00;95201.00;2209325;55;26572;-50
2021/07/16 07:12:19;;;;;;;1.20;1.10;;;16.20;99.90;;;16.92;100.00;95204.00;2440075;55;27143;-52
2021/07/16 07:18:04;;;;;;;2.45;1.12;;;17.20;99.90;;;18.60;100.00;95180.00;2444917;55;34000;-51
2021/07/16 07:20:51;;;;;;;1.48;1.02;;;19.10;99.90;;;21.37;100.00;95181.00;2214078;55;26630;-51
2021/07/16 07:23:37;;;;;;;1.73;1.08;;;21.50;99.90;;;24.58;100.00;95180.00;2436203;55;27049;-51
2021/07/16 07:26:24;;;;;;;2.58;0.95;;;24.00;99.90;;;27.98;100.00;95173.00;2228089;55;27332;-51
2021/07/16 07:29:10;;;;;;;2.72;1.00;;;24.70;99.90;;;28.08;100.00;95184.00;2228492;56;27291;-50
2021/07/16 07:31:56;;;;;;;1.83;0.80;;;25.00;99.90;;;27.75;100.00;95183.00;2237690;55;26751;-50
2021/07/16 07:34:43;;;;;;;1.75;0.93;;;25.20;99.90;;;28.39;100.00;95192.00;2207244;55;27004;-50
2021/07/16 07:37:29;;;;;;;1.85;0.93;;;26.40;99.90;;;29.79;92.35;95187.00;2431501;55;27427;-49
2021/07/16 07:40:17;;;;;;;1.45;1.10;;;25.40;99.90;;;27.95;100.00;95185.00;2438397;55;25885;-50
2021/07/16 07:43:05;;;;;;;1.20;1.10;;;24.50;99.90;;;26.67;100.00;95195.00;2216028;55;26147;-49
2021/07/16 07:45:52;;;;;;;1.25;0.98;;;23.50;99.90;;;25.14;100.00;95192.00;2439811;55;27601;-49
2021/07/16 07:48:38;;;;;;;1.77;1.20;;;22.80;99.90;;;24.08;100.00;95196.00;2216004;55;26696;-49
2021/07/16 07:51:25;;;;;;;1.60;1.10;;;22.70;99.90;;;24.55;100.00;95202.00;2215912;55;26203;-50
2021/07/16 07:54:12;;;;;;;1.30;1.20;;;22.30;99.90;;;23.60;100.00;95200.00;2215025;55;26181;-50
2021/07/16 07:56:58;;;;;;;1.45;0.93;;;22.00;99.90;;;23.15;100.00;95202.00;2437565;55;27372;-49
2021/07/16 07:59:44;;;;;;;1.12;0.98;;;21.60;99.90;;;22.66;100.00;95200.00;2214766;55;27440;-48
2021/07/16 08:02:31;;;;;;;0.82;0.77;;;21.00;99.90;;;21.96;100.00;95204.00;2425814;55;26637;-50
2021/07/16 08:05:18;;;;;;;1.02;0.90;;;20.90;99.90;;;21.72;100.00;95203.00;2197529;55;27270;-50
2021/07/16 08:11:02;;;;;;;2.03;1.00;;;20.80;99.90;;;21.81;100.00;95206.00;2392898;54;34804;-50
2021/07/16 08:13:48;;;;;;;1.65;1.10;;;20.90;99.90;;;22.11;100.00;95209.00;2218069;55;27512;-52
2021/07/16 08:16:34;;;;;;;1.12;0.80;;;21.30;99.90;;;22.54;100.00;95209.00;2474801;54;27064;-51
2021/07/16 08:19:21;;;;;;;0.98;0.90;;;21.80;99.90;;;23.17;100.00;95208.00;2214406;54;27493;-51
2021/07/16 08:22:08;;;;;;;1.10;0.90;;;22.10;99.90;;;23.60;100.00;95202.00;2220149;54;26656;-51
2021/07/16 08:24:54;;;;;;;2.17;0.90;;;22.60;99.90;;;23.71;100.00;95217.00;2448461;54;26806;-51
2021/07/16 08:27:41;;;;;;;2.42;0.90;;;22.90;99.90;;;24.32;100.00;95214.00;2222344;54;26681;-50
2021/07/16 08:30:28;;;;;;;3.25;1.27;;;23.10;99.90;;;24.62;100.00;95214.00;2447625;54;26640;-52
2021/07/16 08:33:15;;;;;;;1.75;1.00;;;23.50;99.90;;;24.91;100.00;95214.00;2220215;54;27558;-51
2021/07/16 08:38:59;;;;;;;2.95;1.00;;;24.60;99.90;;;26.70;100.00;95211.00;2423144;54;33722;-50
2021/07/16 08:44:45;;;;;;;1.02;0.90;;;26.30;99.90;;;28.66;100.00;95212.00;2331529;56;34025;-50
2021/07/16 08:47:32;;;;;;;1.45;0.88;;;27.90;99.90;;;30.73;100.00;95218.00;2133547;58;27399;-50
2021/07/16 08:53:15;;;;;;;0.82;0.82;;;26.00;99.90;;;27.69;100.00;95217.00;2377466;55;34539;-49
2021/07/16 08:56:02;;;;;;;1.90;1.05;;;24.80;99.90;;;26.02;100.00;95221.00;2164980;56;25843;-52
2021/07/16 09:01:46;;;;;;;1.35;0.90;;;22.60;99.90;;;22.86;100.00;95229.00;2420364;55;33950;-51
2021/07/16 09:04:38;;;;;;;1.10;1.02;;;21.70;99.90;;;21.73;100.00;95234.00;2393701;55;26803;-50
2021/07/16 09:07:25;;;;;;;2.37;1.15;;;21.00;99.90;;;21.53;100.00;95232.00;2183768;56;26819;-51
2021/07/16 09:10:13;;;;;;;1.00;0.90;;;20.60;99.90;;;21.37;100.00;95230.00;2409920;55;26674;-51
2021/07/16 09:13:01;;;;;;;0.82;0.82;;;20.50;99.90;;;21.22;100.00;95237.00;2211421;56;27169;-50
2021/07/16 09:15:53;;;;;;;1.02;0.95;;;20.10;99.90;;;20.81;100.00;95236.00;2431825;55;26618;-50
2021/07/16 09:18:40;;;;;;;0.80;0.80;;;20.20;99.90;;;20.52;100.00;95229.00;2433750;55;26181;-50
2021/07/16 09:21:26;;;;;;;0.85;0.85;;;20.00;99.90;;;20.44;100.00;95224.00;2195924;56;26970;-50
2021/07/16 09:24:12;;;;;;;1.23;1.10;;;20.10;99.90;;;20.91;100.00;95224.00;2185609;56;26683;-50
2021/07/16 09:26:59;;;;;;;2.28;1.00;;;20.40;99.90;;;21.38;100.00;95226.00;2403140;55;26737;-51
2021/07/16 09:29:45;;;;;;;2.35;0.90;;;20.80;99.90;;;22.03;100.00;95218.00;2177203;56;27585;-51
2021/07/16 09:32:38;;;;;;;3.17;0.93;;;21.40;99.90;;;22.68;100.00;95222.00;2368113;55;27572;-50
2021/07/16 09:35:28;;;;;;;0.90;0.90;;;22.20;99.90;;;23.45;100.00;95224.00;2166102;55;26681;-51
2021/07/16 09:38:17;;;;;;;1.00;0.90;;;22.40;99.90;;;23.65;100.00;95224.00;2205313;55;26146;-50
2021/07/16 09:41:09;;;;;;;1.02;0.85;;;22.70;99.90;;;23.76;100.00;95232.00;2432158;55;26557;-51
2021/07/16 09:47:16;;;;;;;1.30;0.90;;;22.60;99.90;;;23.42;100.00;95223.00;2418780;55;34366;-51
2021/07/16 09:50:10;;;;;;;2.10;1.00;;;22.70;99.90;;;23.70;100.00;95224.00;2402746;56;27230;-51
2021/07/16 09:56:16;;;;;;;0.85;0.85;;;23.30;99.90;;;24.20;100.00;95226.00;2336614;56;33230;-51
2021/07/16 09:59:06;;;;;;;1.90;0.90;;;23.40;99.90;;;24.36;100.00;95226.00;2113763;58;26811;-51
2021/07/16 10:01:52;;;;;;;1.00;0.90;;;23.50;99.90;;;24.54;100.00;95218.00;2126231;57;26225;-51
2021/07/16 10:04:39;;;;;;;2.40;1.00;;;23.70;99.90;;;24.34;100.00;95226.00;2312053;58;26800;-51
2021/07/16 10:07:26;;;;;;;1.30;1.20;;;23.70;99.90;;;24.60;100.00;95213.00;2106402;57;27500;-51
2021/07/16 10:10:15;;;;;;;1.40;1.00;;;23.70;99.90;;;24.57;100.00;95216.00;2105516;57;26929;-51
2021/07/16 10:13:01;;;;;;;1.25;1.12;;;23.80;99.90;;;25.03;100.00;95213.00;2314998;58;27684;-52
2021/07/16 10:15:48;;;;;;;1.27;1.17;;;24.20;99.90;;;25.96;100.00;95214.00;2105372;58;26722;-51
2021/07/16 10:18:34;;;;;;;1.70;1.30;;;24.90;99.90;;;26.56;100.00;95218.00;2110133;59;27288;-51
2021/07/16 10:21:22;;;;;;;1.35;1.25;;;24.80;99.90;;;25.64;100.00;95222.00;2112503;59;26688;-50
2021/07/16 10:24:09;;;;;;;1.02;0.93;;;24.30;99.90;;;25.55;100.00;95220.00;2110190;59;26745;-51
2021/07/16 10:26:56;;;;;;;0.95;0.95;;;24.40;99.90;;;25.20;100.00;95226.00;2098401;59;26733;-50
2021/07/16 10:29:45;;;;;;;1.40;1.00;;;24.30;99.90;;;25.44;100.00;95225.00;2117637;57;26808;-51
2021/07/16 10:32:47;;;;;;;2.40;1.40;;;24.80;99.90;;;26.34;100.00;95218.00;2301762;57;26740;-51
2021/07/16 10:35:38;;;;;;;1.42;1.33;;;24.50;99.90;;;25.44;100.00;95211.00;2098548;57;26815;-51
2021/07/16 10:38:33;;;;;;;1.12;0.98;;;24.50;99.90;;;25.55;100.00;95215.00;2301905;57;26648;-51
2021/07/16 10:41:35;;;;;;;1.50;0.90;;;24.40;99.90;;;24.81;100.00;95204.00;2100309;57;26817;-50
2021/07/16 10:47:49;;;;;;;1.67;0.90;;;23.80;99.90;;;24.52;100.00;95192.00;2393729;54;33952;-51
2021/07/16 10:53:40;;;;;;;1.98;1.00;;;25.50;99.90;;;26.65;100.00;95195.00;2414848;55;33811;-51
2021/07/16 10:56:44;;;;;;;0.88;0.82;;;25.10;99.90;;;25.96;100.00;95187.00;2177496;56;25647;-51
2021/07/16 11:05:55;;;;;;;0.75;0.75;;;26.10;99.90;;;27.21;100.00;95188.00;2391216;55;33867;-52
2021/07/16 11:09:00;;;;;;;0.90;0.90;;;26.10;99.90;;;27.01;100.00;95190.00;2168105;57;26240;-49
2021/07/16 11:11:47;;;;;;;0.77;0.77;;;26.10;99.90;;;26.85;100.00;95191.00;2176297;57;26689;-51
2021/07/16 11:17:53;;;;;;;0.68;0.68;;;26.20;99.90;;;26.42;98.59;95187.00;2306297;53;33399;-50
2021/07/16 11:20:40;;;;;;;0.80;0.60;;;25.50;99.90;;;25.76;99.87;95186.00;2546357;52;26091;-50
2021/07/16 11:26:55;;;;;;;0.70;0.70;;;25.40;99.90;;;25.90;94.71;95169.00;2451689;55;34353;-49
2021/07/16 11:32:40;;;;;;;1.42;0.90;;;25.30;99.90;;;26.02;100.00;95172.00;2375238;55;33704;-51
2021/07/16 11:35:27;;;;;;;1.67;0.60;;;25.70;99.90;;;26.26;100.00;95176.00;2379198;56;27436;-51
2021/07/16 11:41:10;;;;;;;1.17;0.80;;;25.80;99.90;;;27.12;97.40;95181.00;2419040;55;34046;-50
2021/07/16 11:43:58;;;;;;;1.77;0.65;;;25.80;99.90;;;25.76;100.00;95174.00;2201418;56;26722;-50
2021/07/16 11:46:45;;;;;;;0.90;0.70;;;25.40;99.90;;;25.44;100.00;95166.00;2192945;56;26223;-50
2021/07/16 11:49:32;;;;;;;2.33;0.80;;;25.50;99.90;;;25.83;94.38;95163.00;2397816;55;27461;-51
2021/07/16 11:52:21;;;;;;;1.25;0.75;;;25.50;99.90;;;25.82;100.00;95161.00;2188490;56;26160;-49
2021/07/16 11:58:09;;;;;;;0.90;0.80;;;25.60;99.90;;;25.80;100.00;95151.00;2345476;55;34507;-50
2021/07/16 12:03:53;;;;;;;0.70;0.70;;;25.70;99.90;;;26.13;100.00;95150.00;2384917;55;34474;-51
2021/07/16 12:06:51;;;;;;;1.75;0.73;;;26.30;99.90;;;26.62;100.00;95159.00;2357507;56;27425;-50
2021/07/16 12:09:41;;;;;;;1.80;0.90;;;26.60;99.90;;;27.20;97.05;95152.00;2161160;56;26804;-51
2021/07/16 12:12:28;;;;;;;0.77;0.70;;;26.10;99.90;;;26.56;100.00;95153.00;2380244;55;26108;-51
2021/07/16 12:15:20;;;;;;;1.02;0.80;;;25.40;99.90;;;25.44;100.00;95154.00;2165995;56;26741;-51
2021/07/16 12:21:07;;;;;;;1.02;0.80;;;24.90;99.90;;;25.72;100.00;95151.00;2422597;55;34515;-50
2021/07/16 12:23:54;;;;;;;0.70;0.70;;;25.50;99.90;;;26.25;100.00;95155.00;2185037;56;26752;-51
2021/07/16 12:26:40;;;;;;;0.70;0.70;;;25.00;99.90;;;25.07;100.00;95160.00;2391319;56;26805;-50
2021/07/16 12:29:30;;;;;;;0.90;0.90;;;24.60;99.90;;;24.92;100.00;95155.00;2158882;56;26604;-50
2021/07/16 12:32:17;;;;;;;0.90;0.90;;;24.60;99.90;;;25.36;100.00;95158.00;2386944;55;26694;-51
2021/07/16 12:38:13;;;;;;;0.90;0.70;;;24.40;99.90;;;25.02;100.00;95162.00;2410294;54;34179;-51
2021/07/16 12:41:09;;;;;;;1.25;0.90;;;24.50;99.90;;;24.83;100.00;95170.00;2383639;56;26273;-49
2021/07/16 12:46:59;;;;;;;1.30;0.90;;;24.20;99.90;;;24.77;100.00;95171.00;2405893;55;33861;-50
2021/07/16 12:49:45;;;;;;;0.60;0.60;;;23.70;99.90;;;23.97;100.00;95174.00;2411521;55;26724;-51
2021/07/16 12:52:32;;;;;;;0.90;0.85;;;23.60;99.90;;;24.26;100.00;95180.00;2203411;55;27187;-50
2021/07/16 12:55:20;;;;;;;1.05;0.90;;;23.40;99.90;;;23.86;100.00;95183.00;2214212;55;26873;-50
2021/07/16 12:58:09;;;;;;;0.70;0.70;;;23.30;99.90;;;23.53;100.00;95183.00;2440298;55;27261;-50
2021/07/16 13:00:58;;;;;;;0.77;0.77;;;23.00;99.90;;;23.08;100.00;95191.00;2217109;56;26142;-51
2021/07/16 13:06:43;;;;;;;0.80;0.80;;;22.30;99.90;;;22.67;100.00;95182.00;2392349;55;34100;-49
2021/07/16 13:12:33;;;;;;;2.03;0.73;;;21.90;99.90;;;22.27;100.00;95182.00;2388164;55;34181;-50
2021/07/16 13:15:20;;;;;;;0.75;0.70;;;21.80;99.90;;;22.16;100.00;95185.00;2140066;56;26662;-50
2021/07/16 13:18:09;;;;;;;0.80;0.75;;;21.80;99.90;;;22.20;100.00;95181.00;2377792;56;26745;-51
2021/07/16 13:20:55;;;;;;;1.10;0.90;;;21.70;99.90;;;22.20;100.00;95181.00;2368747;56;26877;-51
2021/07/16 13:23:42;;;;;;;0.73;0.73;;;21.70;99.90;;;22.05;100.00;95187.00;2367365;56;27064;-50
2021/07/16 13:26:34;;;;;;;0.62;0.62;;;21.70;99.90;;;22.08;100.00;95189.00;2155743;57;26671;-50
2021/07/16 13:29:21;;;;;;;1.62;0.60;;;21.80;99.90;;;22.20;100.00;95182.00;2164420;57;26662;-51
2021/07/16 13:32:08;;;;;;;1.00;0.90;;;21.80;99.90;;;22.19;100.00;95188.00;2164850;56;27189;-51
2021/07/16 13:40:49;;;;;;;1.60;0.80;;;22.40;99.90;;;24.33;100.00;95186.00;2461136;54;33740;-50
2021/07/16 13:46:35;;;;;;;1.77;0.80;;;25.00;99.90;;;25.82;100.00;95180.00;2406949;55;33678;-50
2021/07/16 13:49:21;;;;;;;0.60;0.60;;;25.50;99.90;;;26.27;100.00;95179.00;2178743;56;27202;-50
2021/07/16 13:52:08;;;;;;;0.75;0.70;;;26.20;99.90;;;26.75;100.00;95176.00;2419128;55;26588;-50
2021/07/16 13:57:52;;;;;;;0.90;0.73;;;25.50;99.90;;;25.95;100.00;95172.00;2420067;55;33705;-51
2021/07/16 14:00:39;;;;;;;0.50;0.50;;;25.80;99.90;;;26.31;100.00;95178.00;2172983;56;26995;-50